sensor_id;sensor_type;location;lat;lon;timestamp;P1;durP1;ratioP1;P2;durP2;ratioP2
55112;SDS011;41006;50.920;3.456;2023-04-06T00:00:25;48.20;;;26.60;;
55112;SDS011;41006;50.920;3.456;2023-04-06T00:00:56;44.40;;;27.98;;
55112;SDS011;41006;50.920;3.456;2023-04-06T00:01:26;42.25;;;26.33;;
55112;SDS011;41006;50.920;3.456;2023-04-06T00:01:59;39.63;;;25.92;;
55112;SDS011;41006;50.920;3.456;2023-04-06T00:02:29;41.63;;;28.45;;
55112;SDS011;41006;50.920;3.456;2023-04-06T00:02:59;40.38;;;26.05;;
55112;SDS011;41006;50.920;3.456;2023-04-06T00:03:29;44.55;;;26.48;;
55112;SDS011;41006;50.920;3.456;2023-04-06T00:04:05;45.25;;;30.08;;
55112;SDS011;41006;50.920;3.456;2023-04-06T00:04:39;45.28;;;28.60;;
55112;SDS011;41006;50.920;3.456;2023-04-06T00:05:10;46.10;;;29.05;;
55112;SDS011;41006;50.920;3.456;2023-04-06T00:05:41;41.85;;;27.73;;
55112;SDS011;41006;50.920;3.456;2023-04-06T00:06:11;43.10;;;27.88;;
55112;SDS011;41006;50.920;3.456;2023-04-06T00:06:41;47.30;;;28.52;;
55112;SDS011;41006;50.920;3.456;2023-04-06T00:07:14;43.63;;;27.30;;
55112;SDS011;41006;50.920;3.456;2023-04-06T00:07:47;42.33;;;26.70;;
55112;SDS011;41006;50.920;3.456;2023-04-06T00:08:19;43.00;;;27.38;;
55112;SDS011;41006;50.920;3.456;2023-04-06T00:08:56;51.88;;;29.52;;
55112;SDS011;41006;50.920;3.456;2023-04-06T00:09:29;41.55;;;27.70;;
55112;SDS011;41006;50.920;3.456;2023-04-06T00:09:59;61.95;;;28.95;;
55112;SDS011;41006;50.920;3.456;2023-04-06T00:10:33;44.60;;;28.27;;
55112;SDS011;41006;50.920;3.456;2023-04-06T00:11:03;42.63;;;28.70;;
55112;SDS011;41006;50.920;3.456;2023-04-06T00:11:33;45.50;;;28.98;;
55112;SDS011;41006;50.920;3.456;2023-04-06T00:12:04;45.03;;;28.38;;
55112;SDS011;41006;50.920;3.456;2023-04-06T00:12:34;49.55;;;30.73;;
55112;SDS011;41006;50.920;3.456;2023-04-06T00:13:05;43.55;;;28.17;;
55112;SDS011;41006;50.920;3.456;2023-04-06T00:13:35;50.45;;;29.70;;
55112;SDS011;41006;50.920;3.456;2023-04-06T00:14:06;45.22;;;28.58;;
55112;SDS011;41006;50.920;3.456;2023-04-06T00:14:36;45.42;;;28.85;;
55112;SDS011;41006;50.920;3.456;2023-04-06T00:15:06;44.78;;;28.65;;
55112;SDS011;41006;50.920;3.456;2023-04-06T00:15:37;46.05;;;28.73;;
55112;SDS011;41006;50.920;3.456;2023-04-06T00:16:10;50.78;;;31.10;;
55112;SDS011;41006;50.920;3.456;2023-04-06T00:16:40;46.67;;;29.83;;
55112;SDS011;41006;50.920;3.456;2023-04-06T00:17:13;44.45;;;28.98;;
55112;SDS011;41006;50.920;3.456;2023-04-06T00:17:46;47.55;;;29.17;;
55112;SDS011;41006;50.920;3.456;2023-04-06T00:18:22;44.72;;;29.58;;
55112;SDS011;41006;50.920;3.456;2023-04-06T00:18:54;47.70;;;31.30;;
55112;SDS011;41006;50.920;3.456;2023-04-06T00:19:28;48.20;;;31.48;;
55112;SDS011;41006;50.920;3.456;2023-04-06T00:20:00;48.90;;;31.48;;
55112;SDS011;41006;50.920;3.456;2023-04-06T00:20:31;49.08;;;34.42;;
55112;SDS011;41006;50.920;3.456;2023-04-06T00:21:03;50.28;;;32.72;;
55112;SDS011;41006;50.920;3.456;2023-04-06T00:21:34;49.25;;;33.85;;
55112;SDS011;41006;50.920;3.456;2023-04-06T00:22:06;51.35;;;34.33;;
55112;SDS011;41006;50.920;3.456;2023-04-06T00:22:37;51.15;;;33.97;;
55112;SDS011;41006;50.920;3.456;2023-04-06T00:23:07;53.00;;;33.78;;
55112;SDS011;41006;50.920;3.456;2023-04-06T00:23:40;48.95;;;32.67;;
55112;SDS011;41006;50.920;3.456;2023-04-06T00:24:13;50.50;;;32.10;;
55112;SDS011;41006;50.920;3.456;2023-04-06T00:24:43;54.75;;;33.97;;
55112;SDS011;41006;50.920;3.456;2023-04-06T00:25:13;56.70;;;35.13;;
55112;SDS011;41006;50.920;3.456;2023-04-06T00:25:45;51.85;;;33.97;;
55112;SDS011;41006;50.920;3.456;2023-04-06T00:26:18;54.08;;;36.50;;
55112;SDS011;41006;50.920;3.456;2023-04-06T00:26:48;49.60;;;33.92;;
55112;SDS011;41006;50.920;3.456;2023-04-06T00:27:21;56.25;;;36.33;;
55112;SDS011;41006;50.920;3.456;2023-04-06T00:27:53;51.17;;;33.22;;
55112;SDS011;41006;50.920;3.456;2023-04-06T00:28:23;51.38;;;32.63;;
55112;SDS011;41006;50.920;3.456;2023-04-06T00:28:56;54.20;;;35.15;;
55112;SDS011;41006;50.920;3.456;2023-04-06T00:29:31;53.42;;;32.72;;
55112;SDS011;41006;50.920;3.456;2023-04-06T00:30:02;52.70;;;36.10;;
55112;SDS011;41006;50.920;3.456;2023-04-06T00:30:32;52.40;;;35.25;;
55112;SDS011;41006;50.920;3.456;2023-04-06T00:31:02;49.03;;;33.42;;
55112;SDS011;41006;50.920;3.456;2023-04-06T00:31:35;51.80;;;33.67;;
55112;SDS011;41006;50.920;3.456;2023-04-06T00:32:05;51.55;;;35.28;;
55112;SDS011;41006;50.920;3.456;2023-04-06T00:32:38;50.65;;;32.63;;
55112;SDS011;41006;50.920;3.456;2023-04-06T00:33:10;59.13;;;34.72;;
55112;SDS011;41006;50.920;3.456;2023-04-06T00:33:41;51.17;;;32.70;;
55112;SDS011;41006;50.920;3.456;2023-04-06T00:34:16;51.97;;;34.05;;
55112;SDS011;41006;50.920;3.456;2023-04-06T00:34:51;50.60;;;33.17;;
55112;SDS011;41006;50.920;3.456;2023-04-06T00:35:24;51.90;;;34.08;;
55112;SDS011;41006;50.920;3.456;2023-04-06T00:35:55;55.38;;;34.08;;
55112;SDS011;41006;50.920;3.456;2023-04-06T00:36:27;50.45;;;31.92;;
55112;SDS011;41006;50.920;3.456;2023-04-06T00:36:57;50.25;;;33.00;;
55112;SDS011;41006;50.920;3.456;2023-04-06T00:37:28;53.38;;;33.67;;
55112;SDS011;41006;50.920;3.456;2023-04-06T00:37:58;54.22;;;35.22;;
55112;SDS011;41006;50.920;3.456;2023-04-06T00:38:28;53.30;;;32.55;;
55112;SDS011;41006;50.920;3.456;2023-04-06T00:39:01;54.25;;;31.83;;
55112;SDS011;41006;50.920;3.456;2023-04-06T00:39:32;49.17;;;32.90;;
55112;SDS011;41006;50.920;3.456;2023-04-06T00:40:02;50.17;;;33.40;;
55112;SDS011;41006;50.920;3.456;2023-04-06T00:40:32;54.17;;;33.42;;
55112;SDS011;41006;50.920;3.456;2023-04-06T00:41:04;49.30;;;31.08;;
55112;SDS011;41006;50.920;3.456;2023-04-06T00:41:37;54.17;;;32.97;;
55112;SDS011;41006;50.920;3.456;2023-04-06T00:42:11;50.42;;;34.05;;
55112;SDS011;41006;50.920;3.456;2023-04-06T00:42:43;47.20;;;30.83;;
55112;SDS011;41006;50.920;3.456;2023-04-06T00:43:13;52.42;;;32.05;;
55112;SDS011;41006;50.920;3.456;2023-04-06T00:43:44;50.58;;;32.72;;
55112;SDS011;41006;50.920;3.456;2023-04-06T00:44:14;51.30;;;33.03;;
55112;SDS011;41006;50.920;3.456;2023-04-06T00:44:45;57.08;;;33.80;;
55112;SDS011;41006;50.920;3.456;2023-04-06T00:45:15;48.42;;;31.75;;
55112;SDS011;41006;50.920;3.456;2023-04-06T00:45:45;52.20;;;32.20;;
55112;SDS011;41006;50.920;3.456;2023-04-06T00:46:19;58.03;;;33.15;;
55112;SDS011;41006;50.920;3.456;2023-04-06T00:46:49;57.05;;;31.17;;
55112;SDS011;41006;50.920;3.456;2023-04-06T00:47:20;50.53;;;32.08;;
55112;SDS011;41006;50.920;3.456;2023-04-06T00:47:53;52.75;;;32.75;;
55112;SDS011;41006;50.920;3.456;2023-04-06T00:48:23;51.53;;;32.28;;
55112;SDS011;41006;50.920;3.456;2023-04-06T00:48:54;53.80;;;33.88;;
55112;SDS011;41006;50.920;3.456;2023-04-06T00:49:24;51.42;;;32.55;;
55112;SDS011;41006;50.920;3.456;2023-04-06T00:49:54;54.28;;;33.13;;
55112;SDS011;41006;50.920;3.456;2023-04-06T00:50:25;49.28;;;30.02;;
55112;SDS011;41006;50.920;3.456;2023-04-06T00:50:57;48.85;;;32.53;;
55112;SDS011;41006;50.920;3.456;2023-04-06T00:51:30;52.00;;;33.17;;
55112;SDS011;41006;50.920;3.456;2023-04-06T00:52:04;56.03;;;32.65;;
55112;SDS011;41006;50.920;3.456;2023-04-06T00:52:37;53.25;;;32.40;;
55112;SDS011;41006;50.920;3.456;2023-04-06T00:53:07;55.22;;;31.73;;
55112;SDS011;41006;50.920;3.456;2023-04-06T00:53:37;49.63;;;30.83;;
55112;SDS011;41006;50.920;3.456;2023-04-06T00:54:08;54.83;;;34.25;;
55112;SDS011;41006;50.920;3.456;2023-04-06T00:54:38;49.20;;;31.80;;
55112;SDS011;41006;50.920;3.456;2023-04-06T00:55:08;56.40;;;33.38;;
55112;SDS011;41006;50.920;3.456;2023-04-06T00:55:39;58.35;;;33.88;;
55112;SDS011;41006;50.920;3.456;2023-04-06T00:56:10;48.53;;;30.77;;
55112;SDS011;41006;50.920;3.456;2023-04-06T00:56:41;50.88;;;31.83;;
55112;SDS011;41006;50.920;3.456;2023-04-06T00:57:11;50.33;;;32.38;;
55112;SDS011;41006;50.920;3.456;2023-04-06T00:57:44;58.10;;;33.20;;
55112;SDS011;41006;50.920;3.456;2023-04-06T00:58:17;49.38;;;30.70;;
55112;SDS011;41006;50.920;3.456;2023-04-06T00:58:47;47.80;;;31.05;;
55112;SDS011;41006;50.920;3.456;2023-04-06T00:59:17;52.45;;;32.17;;
55112;SDS011;41006;50.920;3.456;2023-04-06T00:59:48;51.67;;;32.72;;
55112;SDS011;41006;50.920;3.456;2023-04-06T01:00:18;47.83;;;31.55;;
55112;SDS011;41006;50.920;3.456;2023-04-06T01:00:48;50.58;;;33.47;;
55112;SDS011;41006;50.920;3.456;2023-04-06T01:01:18;50.08;;;33.60;;
55112;SDS011;41006;50.920;3.456;2023-04-06T01:01:51;50.83;;;31.83;;
55112;SDS011;41006;50.920;3.456;2023-04-06T01:02:22;56.40;;;31.95;;
55112;SDS011;41006;50.920;3.456;2023-04-06T01:02:53;51.50;;;33.30;;
55112;SDS011;41006;50.920;3.456;2023-04-06T01:03:26;57.13;;;34.50;;
55112;SDS011;41006;50.920;3.456;2023-04-06T01:03:56;47.53;;;31.60;;
55112;SDS011;41006;50.920;3.456;2023-04-06T01:04:26;55.78;;;31.80;;
55112;SDS011;41006;50.920;3.456;2023-04-06T01:04:59;51.17;;;31.58;;
55112;SDS011;41006;50.920;3.456;2023-04-06T01:05:32;53.08;;;32.00;;
55112;SDS011;41006;50.920;3.456;2023-04-06T01:06:10;50.45;;;33.17;;
55112;SDS011;41006;50.920;3.456;2023-04-06T01:06:40;54.63;;;33.72;;
55112;SDS011;41006;50.920;3.456;2023-04-06T01:07:10;49.17;;;32.20;;
55112;SDS011;41006;50.920;3.456;2023-04-06T01:07:41;53.20;;;32.85;;
55112;SDS011;41006;50.920;3.456;2023-04-06T01:08:13;48.45;;;31.48;;
55112;SDS011;41006;50.920;3.456;2023-04-06T01:08:46;49.10;;;31.98;;
55112;SDS011;41006;50.920;3.456;2023-04-06T01:09:16;52.40;;;32.20;;
55112;SDS011;41006;50.920;3.456;2023-04-06T01:09:47;46.53;;;30.77;;
55112;SDS011;41006;50.920;3.456;2023-04-06T01:10:23;50.72;;;31.83;;
55112;SDS011;41006;50.920;3.456;2023-04-06T01:10:56;48.25;;;32.53;;
55112;SDS011;41006;50.920;3.456;2023-04-06T01:11:26;54.42;;;33.83;;
55112;SDS011;41006;50.920;3.456;2023-04-06T01:11:57;52.05;;;32.08;;
55112;SDS011;41006;50.920;3.456;2023-04-06T01:12:30;50.95;;;32.35;;
55112;SDS011;41006;50.920;3.456;2023-04-06T01:13:01;54.35;;;34.55;;
55112;SDS011;41006;50.920;3.456;2023-04-06T01:13:31;50.95;;;32.50;;
55112;SDS011;41006;50.920;3.456;2023-04-06T01:14:01;56.53;;;33.63;;
55112;SDS011;41006;50.920;3.456;2023-04-06T01:14:35;55.70;;;32.17;;
55112;SDS011;41006;50.920;3.456;2023-04-06T01:15:05;51.00;;;32.63;;
55112;SDS011;41006;50.920;3.456;2023-04-06T01:15:36;51.95;;;31.45;;
55112;SDS011;41006;50.920;3.456;2023-04-06T01:16:11;53.42;;;32.05;;
55112;SDS011;41006;50.920;3.456;2023-04-06T01:16:44;51.35;;;31.55;;
55112;SDS011;41006;50.920;3.456;2023-04-06T01:17:14;53.45;;;30.95;;
55112;SDS011;41006;50.920;3.456;2023-04-06T01:17:49;55.60;;;32.03;;
55112;SDS011;41006;50.920;3.456;2023-04-06T01:18:30;47.55;;;31.88;;
55112;SDS011;41006;50.920;3.456;2023-04-06T01:19:01;50.33;;;31.35;;
55112;SDS011;41006;50.920;3.456;2023-04-06T01:19:31;52.05;;;32.38;;
55112;SDS011;41006;50.920;3.456;2023-04-06T01:20:05;53.53;;;32.25;;
55112;SDS011;41006;50.920;3.456;2023-04-06T01:20:36;50.47;;;32.20;;
55112;SDS011;41006;50.920;3.456;2023-04-06T01:21:11;52.97;;;29.95;;
55112;SDS011;41006;50.920;3.456;2023-04-06T01:21:45;51.33;;;31.50;;
55112;SDS011;41006;50.920;3.456;2023-04-06T01:22:16;50.72;;;31.70;;
55112;SDS011;41006;50.920;3.456;2023-04-06T01:22:46;49.47;;;31.48;;
55112;SDS011;41006;50.920;3.456;2023-04-06T01:23:17;53.58;;;30.98;;
55112;SDS011;41006;50.920;3.456;2023-04-06T01:23:47;51.17;;;31.27;;
55112;SDS011;41006;50.920;3.456;2023-04-06T01:24:20;55.75;;;33.58;;
55112;SDS011;41006;50.920;3.456;2023-04-06T01:24:52;49.55;;;30.33;;
55112;SDS011;41006;50.920;3.456;2023-04-06T01:25:23;49.17;;;32.22;;
55112;SDS011;41006;50.920;3.456;2023-04-06T01:25:53;55.17;;;33.20;;
55112;SDS011;41006;50.920;3.456;2023-04-06T01:26:23;48.42;;;29.35;;
55112;SDS011;41006;50.920;3.456;2023-04-06T01:26:56;50.85;;;29.58;;
55112;SDS011;41006;50.920;3.456;2023-04-06T01:27:29;55.05;;;30.50;;
55112;SDS011;41006;50.920;3.456;2023-04-06T01:27:59;50.03;;;30.55;;
55112;SDS011;41006;50.920;3.456;2023-04-06T01:28:32;58.58;;;32.47;;
55112;SDS011;41006;50.920;3.456;2023-04-06T01:29:07;52.85;;;31.17;;
55112;SDS011;41006;50.920;3.456;2023-04-06T01:29:39;54.63;;;31.00;;
55112;SDS011;41006;50.920;3.456;2023-04-06T01:30:15;49.97;;;31.23;;
55112;SDS011;41006;50.920;3.456;2023-04-06T01:30:48;55.47;;;33.00;;
55112;SDS011;41006;50.920;3.456;2023-04-06T01:31:18;50.25;;;31.85;;
55112;SDS011;41006;50.920;3.456;2023-04-06T01:31:48;52.15;;;31.23;;
55112;SDS011;41006;50.920;3.456;2023-04-06T01:32:19;55.92;;;32.85;;
55112;SDS011;41006;50.920;3.456;2023-04-06T01:32:49;49.80;;;32.05;;
55112;SDS011;41006;50.920;3.456;2023-04-06T01:33:22;48.80;;;31.58;;
55112;SDS011;41006;50.920;3.456;2023-04-06T01:33:52;53.25;;;32.28;;
55112;SDS011;41006;50.920;3.456;2023-04-06T01:34:22;51.03;;;31.83;;
55112;SDS011;41006;50.920;3.456;2023-04-06T01:34:58;52.90;;;32.38;;
55112;SDS011;41006;50.920;3.456;2023-04-06T01:35:30;51.83;;;31.25;;
55112;SDS011;41006;50.920;3.456;2023-04-06T01:36:01;53.80;;;32.08;;
55112;SDS011;41006;50.920;3.456;2023-04-06T01:36:31;54.13;;;34.33;;
55112;SDS011;41006;50.920;3.456;2023-04-06T01:37:02;48.95;;;30.55;;
55112;SDS011;41006;50.920;3.456;2023-04-06T01:37:35;52.90;;;32.78;;
55112;SDS011;41006;50.920;3.456;2023-04-06T01:38:05;53.80;;;32.25;;
55112;SDS011;41006;50.920;3.456;2023-04-06T01:38:35;51.15;;;32.13;;
55112;SDS011;41006;50.920;3.456;2023-04-06T01:39:06;51.58;;;32.78;;
55112;SDS011;41006;50.920;3.456;2023-04-06T01:39:36;50.10;;;31.08;;
55112;SDS011;41006;50.920;3.456;2023-04-06T01:40:09;53.45;;;32.92;;
55112;SDS011;41006;50.920;3.456;2023-04-06T01:40:43;52.72;;;32.42;;
55112;SDS011;41006;50.920;3.456;2023-04-06T01:41:16;50.80;;;31.45;;
55112;SDS011;41006;50.920;3.456;2023-04-06T01:41:46;52.13;;;32.40;;
55112;SDS011;41006;50.920;3.456;2023-04-06T01:42:19;52.20;;;31.13;;
55112;SDS011;41006;50.920;3.456;2023-04-06T01:42:52;46.05;;;31.00;;
55112;SDS011;41006;50.920;3.456;2023-04-06T01:43:22;50.45;;;32.08;;
55112;SDS011;41006;50.920;3.456;2023-04-06T01:43:53;52.55;;;31.48;;
55112;SDS011;41006;50.920;3.456;2023-04-06T01:44:26;51.15;;;32.78;;
55112;SDS011;41006;50.920;3.456;2023-04-06T01:45:00;52.80;;;31.55;;
55112;SDS011;41006;50.920;3.456;2023-04-06T01:45:32;53.35;;;33.28;;
55112;SDS011;41006;50.920;3.456;2023-04-06T01:46:05;54.45;;;32.88;;
55112;SDS011;41006;50.920;3.456;2023-04-06T01:46:37;54.15;;;32.30;;
55112;SDS011;41006;50.920;3.456;2023-04-06T01:47:08;52.17;;;32.85;;
55112;SDS011;41006;50.920;3.456;2023-04-06T01:47:40;56.17;;;33.33;;
55112;SDS011;41006;50.920;3.456;2023-04-06T01:48:13;53.88;;;33.17;;
55112;SDS011;41006;50.920;3.456;2023-04-06T01:48:43;53.85;;;32.58;;
55112;SDS011;41006;50.920;3.456;2023-04-06T01:49:13;50.15;;;31.98;;
55112;SDS011;41006;50.920;3.456;2023-04-06T01:49:44;55.38;;;31.83;;
55112;SDS011;41006;50.920;3.456;2023-04-06T01:50:14;55.35;;;32.53;;
55112;SDS011;41006;50.920;3.456;2023-04-06T01:50:44;50.47;;;32.05;;
55112;SDS011;41006;50.920;3.456;2023-04-06T01:51:15;51.80;;;31.38;;
55112;SDS011;41006;50.920;3.456;2023-04-06T01:51:45;51.30;;;31.30;;
55112;SDS011;41006;50.920;3.456;2023-04-06T01:52:16;49.85;;;31.85;;
55112;SDS011;41006;50.920;3.456;2023-04-06T01:52:48;53.22;;;32.83;;
55112;SDS011;41006;50.920;3.456;2023-04-06T01:53:21;52.80;;;31.98;;
55112;SDS011;41006;50.920;3.456;2023-04-06T01:53:56;54.42;;;32.58;;
55112;SDS011;41006;50.920;3.456;2023-04-06T01:54:26;50.65;;;31.05;;
55112;SDS011;41006;50.920;3.456;2023-04-06T01:54:59;61.75;;;33.88;;
55112;SDS011;41006;50.920;3.456;2023-04-06T01:55:29;49.83;;;31.88;;
55112;SDS011;41006;50.920;3.456;2023-04-06T01:55:59;55.60;;;33.65;;
55112;SDS011;41006;50.920;3.456;2023-04-06T01:56:33;52.35;;;33.03;;
55112;SDS011;41006;50.920;3.456;2023-04-06T01:57:06;55.63;;;31.55;;
55112;SDS011;41006;50.920;3.456;2023-04-06T01:57:36;56.50;;;32.17;;
55112;SDS011;41006;50.920;3.456;2023-04-06T01:58:08;53.00;;;32.40;;
55112;SDS011;41006;50.920;3.456;2023-04-06T01:58:41;54.08;;;32.70;;
55112;SDS011;41006;50.920;3.456;2023-04-06T01:59:12;50.60;;;31.75;;
55112;SDS011;41006;50.920;3.456;2023-04-06T01:59:44;54.58;;;33.60;;
55112;SDS011;41006;50.920;3.456;2023-04-06T02:00:15;53.88;;;33.75;;
55112;SDS011;41006;50.920;3.456;2023-04-06T02:00:45;55.97;;;33.17;;
55112;SDS011;41006;50.920;3.456;2023-04-06T02:01:16;51.90;;;31.90;;
55112;SDS011;41006;50.920;3.456;2023-04-06T02:01:46;54.55;;;32.25;;
55112;SDS011;41006;50.920;3.456;2023-04-06T02:02:16;52.05;;;32.40;;
55112;SDS011;41006;50.920;3.456;2023-04-06T02:02:46;50.72;;;31.58;;
55112;SDS011;41006;50.920;3.456;2023-04-06T02:03:19;49.42;;;31.83;;
55112;SDS011;41006;50.920;3.456;2023-04-06T02:03:49;50.55;;;31.13;;
55112;SDS011;41006;50.920;3.456;2023-04-06T02:04:20;49.08;;;31.10;;
55112;SDS011;41006;50.920;3.456;2023-04-06T02:04:51;49.42;;;30.80;;
55112;SDS011;41006;50.920;3.456;2023-04-06T02:05:21;47.10;;;30.83;;
55112;SDS011;41006;50.920;3.456;2023-04-06T02:05:51;50.60;;;31.15;;
55112;SDS011;41006;50.920;3.456;2023-04-06T02:06:24;54.25;;;31.48;;
55112;SDS011;41006;50.920;3.456;2023-04-06T02:06:55;49.92;;;30.15;;
55112;SDS011;41006;50.920;3.456;2023-04-06T02:07:25;48.53;;;31.13;;
55112;SDS011;41006;50.920;3.456;2023-04-06T02:07:55;51.20;;;30.35;;
55112;SDS011;41006;50.920;3.456;2023-04-06T02:08:26;51.78;;;31.90;;
55112;SDS011;41006;50.920;3.456;2023-04-06T02:09:01;51.35;;;31.67;;
55112;SDS011;41006;50.920;3.456;2023-04-06T02:09:32;45.38;;;28.63;;
55112;SDS011;41006;50.920;3.456;2023-04-06T02:10:02;51.83;;;30.27;;
55112;SDS011;41006;50.920;3.456;2023-04-06T02:10:35;46.80;;;29.90;;
55112;SDS011;41006;50.920;3.456;2023-04-06T02:11:08;43.15;;;28.77;;
55112;SDS011;41006;50.920;3.456;2023-04-06T02:11:40;43.83;;;28.88;;
55112;SDS011;41006;50.920;3.456;2023-04-06T02:12:13;52.20;;;31.92;;
55112;SDS011;41006;50.920;3.456;2023-04-06T02:12:45;52.25;;;31.42;;
55112;SDS011;41006;50.920;3.456;2023-04-06T02:13:18;54.08;;;31.17;;
55112;SDS011;41006;50.920;3.456;2023-04-06T02:13:49;52.63;;;31.15;;
55112;SDS011;41006;50.920;3.456;2023-04-06T02:14:19;53.92;;;30.27;;
55112;SDS011;41006;50.920;3.456;2023-04-06T02:14:52;53.20;;;31.65;;
55112;SDS011;41006;50.920;3.456;2023-04-06T02:15:22;51.15;;;30.42;;
55112;SDS011;41006;50.920;3.456;2023-04-06T02:15:53;51.00;;;30.27;;
55112;SDS011;41006;50.920;3.456;2023-04-06T02:16:23;45.50;;;30.13;;
55112;SDS011;41006;50.920;3.456;2023-04-06T02:16:56;49.00;;;30.45;;
55112;SDS011;41006;50.920;3.456;2023-04-06T02:17:26;52.03;;;31.45;;
55112;SDS011;41006;50.920;3.456;2023-04-06T02:17:59;52.42;;;32.08;;
55112;SDS011;41006;50.920;3.456;2023-04-06T02:18:31;52.20;;;31.10;;
55112;SDS011;41006;50.920;3.456;2023-04-06T02:19:03;50.13;;;32.05;;
55112;SDS011;41006;50.920;3.456;2023-04-06T02:19:34;52.05;;;32.05;;
55112;SDS011;41006;50.920;3.456;2023-04-06T02:20:04;52.70;;;32.17;;
55112;SDS011;41006;50.920;3.456;2023-04-06T02:20:37;52.88;;;31.35;;
55112;SDS011;41006;50.920;3.456;2023-04-06T02:21:07;52.30;;;32.40;;
55112;SDS011;41006;50.920;3.456;2023-04-06T02:21:38;51.45;;;31.85;;
55112;SDS011;41006;50.920;3.456;2023-04-06T02:22:10;50.38;;;31.88;;
55112;SDS011;41006;50.920;3.456;2023-04-06T02:22:41;50.72;;;29.80;;
55112;SDS011;41006;50.920;3.456;2023-04-06T02:23:11;53.58;;;32.08;;
55112;SDS011;41006;50.920;3.456;2023-04-06T02:23:41;52.50;;;30.58;;
55112;SDS011;41006;50.920;3.456;2023-04-06T02:24:12;54.83;;;31.25;;
55112;SDS011;41006;50.920;3.456;2023-04-06T02:24:42;59.92;;;34.05;;
55112;SDS011;41006;50.920;3.456;2023-04-06T02:25:12;49.50;;;30.30;;
55112;SDS011;41006;50.920;3.456;2023-04-06T02:25:42;50.42;;;30.02;;
55112;SDS011;41006;50.920;3.456;2023-04-06T02:26:13;49.97;;;31.27;;
55112;SDS011;41006;50.920;3.456;2023-04-06T02:26:46;49.10;;;30.60;;
55112;SDS011;41006;50.920;3.456;2023-04-06T02:27:16;51.10;;;29.98;;
55112;SDS011;41006;50.920;3.456;2023-04-06T02:27:46;50.20;;;31.00;;
55112;SDS011;41006;50.920;3.456;2023-04-06T02:28:19;56.10;;;30.63;;
55112;SDS011;41006;50.920;3.456;2023-04-06T02:28:49;49.25;;;30.85;;
55112;SDS011;41006;50.920;3.456;2023-04-06T02:29:19;46.55;;;29.20;;
55112;SDS011;41006;50.920;3.456;2023-04-06T02:29:52;53.08;;;30.45;;
55112;SDS011;41006;50.920;3.456;2023-04-06T02:30:26;50.17;;;31.25;;
55112;SDS011;41006;50.920;3.456;2023-04-06T02:30:58;51.25;;;29.92;;
55112;SDS011;41006;50.920;3.456;2023-04-06T02:31:29;48.03;;;30.08;;
55112;SDS011;41006;50.920;3.456;2023-04-06T02:31:59;50.40;;;30.27;;
55112;SDS011;41006;50.920;3.456;2023-04-06T02:32:29;52.03;;;32.28;;
55112;SDS011;41006;50.920;3.456;2023-04-06T02:33:00;45.88;;;29.35;;
55112;SDS011;41006;50.920;3.456;2023-04-06T02:33:36;48.55;;;30.45;;
55112;SDS011;41006;50.920;3.456;2023-04-06T02:34:06;50.42;;;31.02;;
55112;SDS011;41006;50.920;3.456;2023-04-06T02:34:37;45.90;;;28.95;;
55112;SDS011;41006;50.920;3.456;2023-04-06T02:35:10;44.90;;;29.33;;
55112;SDS011;41006;50.920;3.456;2023-04-06T02:35:40;48.92;;;28.10;;
55112;SDS011;41006;50.920;3.456;2023-04-06T02:36:10;49.50;;;30.48;;
55112;SDS011;41006;50.920;3.456;2023-04-06T02:36:46;46.65;;;29.88;;
55112;SDS011;41006;50.920;3.456;2023-04-06T02:37:19;50.28;;;29.63;;
55112;SDS011;41006;50.920;3.456;2023-04-06T02:37:49;46.80;;;28.75;;
55112;SDS011;41006;50.920;3.456;2023-04-06T02:38:20;50.97;;;30.38;;
55112;SDS011;41006;50.920;3.456;2023-04-06T02:38:50;45.08;;;27.35;;
55112;SDS011;41006;50.920;3.456;2023-04-06T02:39:21;49.53;;;27.33;;
55112;SDS011;41006;50.920;3.456;2023-04-06T02:39:51;47.75;;;28.90;;
55112;SDS011;41006;50.920;3.456;2023-04-06T02:40:22;43.97;;;28.35;;
55112;SDS011;41006;50.920;3.456;2023-04-06T02:40:52;51.13;;;29.30;;
55112;SDS011;41006;50.920;3.456;2023-04-06T02:41:22;44.28;;;28.48;;
55112;SDS011;41006;50.920;3.456;2023-04-06T02:41:53;46.58;;;28.40;;
55112;SDS011;41006;50.920;3.456;2023-04-06T02:42:23;46.38;;;28.38;;
55112;SDS011;41006;50.920;3.456;2023-04-06T02:42:55;48.75;;;28.35;;
55112;SDS011;41006;50.920;3.456;2023-04-06T02:43:28;48.13;;;28.08;;
55112;SDS011;41006;50.920;3.456;2023-04-06T02:44:00;48.20;;;29.35;;
55112;SDS011;41006;50.920;3.456;2023-04-06T02:44:33;46.58;;;28.70;;
55112;SDS011;41006;50.920;3.456;2023-04-06T02:45:06;40.40;;;26.98;;
55112;SDS011;41006;50.920;3.456;2023-04-06T02:45:36;44.17;;;26.38;;
55112;SDS011;41006;50.920;3.456;2023-04-06T02:46:07;46.80;;;27.23;;
55112;SDS011;41006;50.920;3.456;2023-04-06T02:46:37;41.58;;;27.30;;
55112;SDS011;41006;50.920;3.456;2023-04-06T02:47:07;49.53;;;30.60;;
55112;SDS011;41006;50.920;3.456;2023-04-06T02:47:38;49.75;;;28.63;;
55112;SDS011;41006;50.920;3.456;2023-04-06T02:48:08;42.75;;;26.80;;
55112;SDS011;41006;50.920;3.456;2023-04-06T02:48:40;48.78;;;28.33;;
55112;SDS011;41006;50.920;3.456;2023-04-06T02:49:11;44.13;;;28.02;;
55112;SDS011;41006;50.920;3.456;2023-04-06T02:49:43;46.83;;;27.83;;
55112;SDS011;41006;50.920;3.456;2023-04-06T02:50:13;44.08;;;27.65;;
55112;SDS011;41006;50.920;3.456;2023-04-06T02:50:44;44.10;;;27.08;;
55112;SDS011;41006;50.920;3.456;2023-04-06T02:51:14;46.50;;;29.33;;
55112;SDS011;41006;50.920;3.456;2023-04-06T02:51:44;46.05;;;27.23;;
55112;SDS011;41006;50.920;3.456;2023-04-06T02:52:15;43.00;;;25.92;;
55112;SDS011;41006;50.920;3.456;2023-04-06T02:52:47;43.95;;;26.88;;
55112;SDS011;41006;50.920;3.456;2023-04-06T02:53:18;43.65;;;27.90;;
55112;SDS011;41006;50.920;3.456;2023-04-06T02:53:48;42.97;;;27.02;;
55112;SDS011;41006;50.920;3.456;2023-04-06T02:54:20;40.08;;;27.17;;
55112;SDS011;41006;50.920;3.456;2023-04-06T02:54:56;46.55;;;28.17;;
55112;SDS011;41006;50.920;3.456;2023-04-06T02:55:26;41.65;;;27.45;;
55112;SDS011;41006;50.920;3.456;2023-04-06T02:55:56;43.03;;;26.63;;
55112;SDS011;41006;50.920;3.456;2023-04-06T02:56:27;45.90;;;26.67;;
55112;SDS011;41006;50.920;3.456;2023-04-06T02:56:59;40.40;;;26.52;;
55112;SDS011;41006;50.920;3.456;2023-04-06T02:57:29;41.65;;;27.98;;
55112;SDS011;41006;50.920;3.456;2023-04-06T02:58:00;46.65;;;29.05;;
55112;SDS011;41006;50.920;3.456;2023-04-06T02:58:32;45.88;;;27.77;;
55112;SDS011;41006;50.920;3.456;2023-04-06T02:59:02;46.03;;;26.52;;
55112;SDS011;41006;50.920;3.456;2023-04-06T02:59:36;41.35;;;27.63;;
55112;SDS011;41006;50.920;3.456;2023-04-06T03:00:06;44.00;;;27.58;;
55112;SDS011;41006;50.920;3.456;2023-04-06T03:00:37;44.00;;;27.67;;
55112;SDS011;41006;50.920;3.456;2023-04-06T03:01:07;44.72;;;28.23;;
55112;SDS011;41006;50.920;3.456;2023-04-06T03:01:40;45.30;;;28.05;;
55112;SDS011;41006;50.920;3.456;2023-04-06T03:02:10;46.90;;;28.60;;
55112;SDS011;41006;50.920;3.456;2023-04-06T03:02:43;44.65;;;28.80;;
55112;SDS011;41006;50.920;3.456;2023-04-06T03:03:13;38.15;;;28.83;;
55112;SDS011;41006;50.920;3.456;2023-04-06T03:03:43;43.45;;;27.92;;
55112;SDS011;41006;50.920;3.456;2023-04-06T03:04:14;44.70;;;28.08;;